N482CS BIRK-EGPC
Flight info
| Callsign | N482CS |
|---|---|
| Flight time | N/A |
| Altitude | 11000 |
| Route | LUTER DCT MOXAL DCT RATSU/N0116F110 DCT DEVBI DCT BAMRA |
| Aircraft | C172/L-SFG/C |
Departure
| Time | 2026-05-09 06:20 |
|---|---|
| Airport | Reykjavík Domestic Airport (BIRK) |
Arrival
| Time | N/A |
|---|---|
| Airport | Wick John O'Groats Airport (EGPC) |
| Time | Latitude | Longitude | Altitude | Speed | Heading |
|---|---|---|---|---|---|
| 2026-05-09 06:14 | 64.12925 | -21.93408 | 41 ft | 0 kts | 262° |
| 2026-05-09 06:14 | 64.12924 | -21.93414 | 40 ft | 2 kts | 262° |
| 2026-05-09 06:14 | 64.12922 | -21.93485 | 40 ft | 5 kts | 273° |
| 2026-05-09 06:15 | 64.12937 | -21.93545 | 39 ft | 4 kts | 335° |
| 2026-05-09 06:15 | 64.12946 | -21.93555 | 40 ft | 0 kts | 338° |
| 2026-05-09 06:15 | 64.12956 | -21.93565 | 40 ft | 5 kts | 337° |
| 2026-05-09 06:15 | 64.13010 | -21.93565 | 41 ft | 10 kts | 5° |
| 2026-05-09 06:16 | 64.13094 | -21.93545 | 40 ft | 14 kts | 356° |
| 2026-05-09 06:16 | 64.13198 | -21.93561 | 41 ft | 15 kts | 357° |
| 2026-05-09 06:16 | 64.13313 | -21.93580 | 39 ft | 18 kts | 354° |
| 2026-05-09 06:16 | 64.13437 | -21.93608 | 35 ft | 18 kts | 356° |
| 2026-05-09 06:17 | 64.13550 | -21.93637 | 31 ft | 13 kts | 348° |
| 2026-05-09 06:17 | 64.13574 | -21.93670 | 31 ft | 0 kts | 264° |
| 2026-05-09 06:18 | 64.13574 | -21.93672 | 31 ft | 1 kts | 270° |
| 2026-05-09 06:18 | 64.13603 | -21.93747 | 31 ft | 12 kts | 310° |
| 2026-05-09 06:18 | 64.13607 | -21.93894 | 35 ft | 11 kts | 173° |
| 2026-05-09 06:19 | 64.13589 | -21.93887 | 35 ft | 0 kts | 175° |
| 2026-05-09 06:19 | 64.13465 | -21.93863 | 36 ft | 41 kts | 175° |
| 2026-05-09 06:19 | 64.13057 | -21.93802 | 84 ft | 68 kts | 179° |
| 2026-05-09 06:19 | 64.12576 | -21.93739 | 253 ft | 69 kts | 174° |
| 2026-05-09 06:20 | 64.12025 | -21.93823 | 316 ft | 89 kts | 193° |
| 2026-05-09 06:20 | 64.11416 | -21.94189 | 496 ft | 92 kts | 196° |
| 2026-05-09 06:20 | 64.10797 | -21.94598 | 708 ft | 93 kts | 198° |
| 2026-05-09 06:20 | 64.10159 | -21.94959 | 895 ft | 96 kts | 198° |
| 2026-05-09 06:21 | 64.09527 | -21.94623 | 1073 ft | 105 kts | 132° |
| 2026-05-09 06:21 | 64.09027 | -21.93419 | 1277 ft | 106 kts | 140° |
| 2026-05-09 06:21 | 64.08512 | -21.92197 | 1483 ft | 107 kts | 138° |
| 2026-05-09 06:21 | 64.08039 | -21.90902 | 1669 ft | 108 kts | 109° |
| 2026-05-09 06:22 | 64.08104 | -21.89241 | 1879 ft | 105 kts | 89° |
| 2026-05-09 06:22 | 64.08111 | -21.87587 | 2087 ft | 104 kts | 84° |
| 2026-05-09 06:22 | 64.08150 | -21.85936 | 2274 ft | 105 kts | 85° |
| 2026-05-09 06:22 | 64.08195 | -21.84253 | 2458 ft | 106 kts | 84° |
| 2026-05-09 06:23 | 64.08242 | -21.82569 | 2639 ft | 106 kts | 84° |
| 2026-05-09 06:23 | 64.08290 | -21.80890 | 2823 ft | 106 kts | 84° |
| 2026-05-09 06:23 | 64.08339 | -21.79218 | 3005 ft | 105 kts | 83° |
| 2026-05-09 06:23 | 64.08388 | -21.77553 | 3188 ft | 105 kts | 83° |
| 2026-05-09 06:24 | 64.08435 | -21.75903 | 3371 ft | 106 kts | 82° |
| 2026-05-09 06:24 | 64.08483 | -21.74221 | 3570 ft | 106 kts | 82° |
| 2026-05-09 06:24 | 64.08532 | -21.72521 | 3752 ft | 108 kts | 81° |
| 2026-05-09 06:24 | 64.08581 | -21.70802 | 3935 ft | 109 kts | 81° |
| 2026-05-09 06:25 | 64.08630 | -21.69073 | 4118 ft | 109 kts | 81° |
| 2026-05-09 06:25 | 64.08679 | -21.67356 | 4298 ft | 108 kts | 80° |
| 2026-05-09 06:25 | 64.08727 | -21.65663 | 4471 ft | 107 kts | 79° |
| 2026-05-09 06:25 | 64.08773 | -21.63966 | 4625 ft | 107 kts | 79° |
| 2026-05-09 06:26 | 64.08822 | -21.62264 | 4787 ft | 107 kts | 79° |
| 2026-05-09 06:26 | 64.08870 | -21.60562 | 4949 ft | 108 kts | 79° |
| 2026-05-09 06:26 | 64.08916 | -21.58842 | 5104 ft | 109 kts | 79° |
| 2026-05-09 06:26 | 64.08965 | -21.57098 | 5226 ft | 110 kts | 79° |
| 2026-05-09 06:27 | 64.09014 | -21.55352 | 5353 ft | 110 kts | 78° |
| 2026-05-09 06:27 | 64.09061 | -21.53605 | 5484 ft | 110 kts | 77° |
| 2026-05-09 06:27 | 64.09109 | -21.51870 | 5606 ft | 109 kts | 77° |
| 2026-05-09 06:27 | 64.09156 | -21.50145 | 5732 ft | 108 kts | 76° |
| 2026-05-09 06:28 | 64.09199 | -21.48429 | 5860 ft | 108 kts | 76° |
| 2026-05-09 06:28 | 64.09249 | -21.46724 | 5979 ft | 109 kts | 77° |
| 2026-05-09 06:28 | 64.09296 | -21.44972 | 6065 ft | 112 kts | 77° |
| 2026-05-09 06:28 | 64.09344 | -21.43156 | 6158 ft | 116 kts | 77° |
| 2026-05-09 06:29 | 64.09394 | -21.41276 | 6250 ft | 120 kts | 76° |
| 2026-05-09 06:29 | 64.09444 | -21.39347 | 6339 ft | 123 kts | 77° |
| 2026-05-09 06:29 | 64.09495 | -21.37357 | 6429 ft | 127 kts | 77° |
| 2026-05-09 06:29 | 64.09548 | -21.35347 | 6540 ft | 127 kts | 77° |
| 2026-05-09 06:30 | 64.09601 | -21.33301 | 6652 ft | 130 kts | 77° |
| 2026-05-09 06:30 | 64.09656 | -21.31218 | 6763 ft | 133 kts | 77° |
| 2026-05-09 06:30 | 64.09708 | -21.29082 | 6869 ft | 135 kts | 77° |
| 2026-05-09 06:30 | 64.09761 | -21.26998 | 6984 ft | 128 kts | 76° |
| 2026-05-09 06:31 | 64.09811 | -21.24989 | 7110 ft | 126 kts | 77° |
| 2026-05-09 06:31 | 64.09861 | -21.22995 | 7227 ft | 124 kts | 76° |
| 2026-05-09 06:31 | 64.09912 | -21.21041 | 7356 ft | 124 kts | 76° |
| 2026-05-09 06:31 | 64.09962 | -21.19073 | 7479 ft | 123 kts | 76° |
| 2026-05-09 06:32 | 64.10008 | -21.17150 | 7598 ft | 119 kts | 75° |
| 2026-05-09 06:32 | 64.10054 | -21.15275 | 7717 ft | 116 kts | 75° |
| 2026-05-09 06:32 | 64.10102 | -21.13435 | 7843 ft | 116 kts | 75° |
| 2026-05-09 06:33 | 64.10189 | -21.09872 | 8076 ft | 108 kts | 73° |
| 2026-05-09 06:33 | 64.10230 | -21.08184 | 8191 ft | 104 kts | 73° |
| 2026-05-09 06:33 | 64.10270 | -21.06573 | 8297 ft | 98 kts | 72° |
| 2026-05-09 06:34 | 64.10413 | -21.04187 | 5948 ft | 79 kts | 272° |
| 2026-05-09 06:34 | 64.09862 | -21.03365 | 1695 ft | 180 kts | 52° |
| 2026-05-09 06:34 | 64.10285 | -21.03074 | 379 ft | 10 kts | 182° |
| 2026-05-09 06:34 | 64.10063 | -21.03306 | 328 ft | 55 kts | 181° |
| 2026-05-09 06:35 | 64.09976 | -21.03335 | 315 ft | 0 kts | 72° |